createdAt,value
2023-04-28T00:00:31.582Z,3.33
2023-04-28T00:02:59.784Z,2.42
2023-04-28T00:05:28.382Z,2.70
2023-04-28T00:07:56.355Z,2.72
2023-04-28T00:10:24.326Z,3.20
2023-04-28T00:12:52.180Z,2.38
2023-04-28T00:15:20.434Z,2.78
2023-04-28T00:17:48.698Z,3.20
2023-04-28T00:20:17.126Z,3.83
2023-04-28T00:22:45.034Z,2.92
2023-04-28T00:25:13.152Z,3.10
2023-04-28T00:27:41.024Z,2.80
2023-04-28T00:30:09.744Z,3.30
2023-04-28T00:32:37.721Z,2.40
2023-04-28T00:35:07.269Z,3.00
2023-04-28T00:37:39.126Z,2.97
2023-04-28T00:40:07.886Z,3.88
2023-04-28T00:42:35.809Z,2.80
2023-04-28T00:45:07.578Z,4.75
2023-04-28T00:47:37.562Z,3.30
2023-04-28T00:50:06.824Z,3.78
2023-04-28T00:52:34.954Z,2.15
2023-04-28T00:55:03.753Z,2.58
2023-04-28T00:57:31.768Z,3.33
2023-04-28T01:00:01.241Z,1.98
2023-04-28T01:02:30.851Z,2.35
2023-04-28T01:05:00.180Z,2.78
2023-04-28T01:07:28.790Z,2.65
2023-04-28T01:12:30.898Z,3.40
2023-04-28T01:17:28.400Z,2.70
2023-04-28T01:19:56.694Z,2.45
2023-04-28T01:22:24.587Z,2.97
2023-04-28T01:24:52.502Z,2.53
2023-04-28T01:27:20.986Z,4.65
2023-04-28T01:29:49.165Z,2.72
2023-04-28T01:32:17.260Z,2.95
2023-04-28T01:34:45.088Z,2.45
2023-04-28T01:37:13.281Z,2.35
2023-04-28T01:39:41.102Z,2.33
2023-04-28T01:42:09.074Z,3.03
2023-04-28T01:44:36.920Z,3.03
2023-04-28T01:47:05.268Z,3.70
2023-04-28T01:49:36.151Z,3.45
2023-04-28T01:52:04.162Z,3.00
2023-04-28T01:54:32.396Z,3.35
2023-04-28T01:57:00.373Z,2.95
2023-04-28T01:59:28.368Z,2.60
2023-04-28T02:01:56.764Z,2.60
2023-04-28T02:04:24.825Z,2.63
2023-04-28T02:06:53.231Z,2.85
2023-04-28T02:09:21.495Z,2.30
2023-04-28T02:11:49.664Z,2.80
2023-04-28T02:14:17.881Z,3.95
2023-04-28T02:16:46.463Z,2.92
2023-04-28T02:19:16.053Z,2.95
2023-04-28T02:21:44.085Z,2.67
2023-04-28T02:24:12.063Z,3.17
2023-04-28T02:26:40.169Z,2.63
2023-04-28T02:29:08.182Z,3.67
2023-04-28T02:31:36.346Z,3.65
2023-04-28T02:34:04.305Z,3.40
2023-04-28T02:36:33.450Z,3.40
2023-04-28T02:39:01.684Z,2.50
2023-04-28T02:41:31.356Z,3.75
2023-04-28T02:43:59.250Z,2.22
2023-04-28T02:46:27.457Z,3.20
2023-04-28T02:48:56.615Z,3.33
2023-04-28T02:51:24.522Z,1.83
2023-04-28T02:55:12.169Z,3.33
2023-04-28T02:57:40.385Z,6.18
2023-04-28T03:00:09.320Z,4.10
2023-04-28T03:02:45.194Z,8.75
2023-04-28T03:05:13.201Z,7.63
2023-04-28T03:07:41.195Z,6.72
2023-04-28T03:10:09.575Z,9.73
2023-04-28T03:12:37.464Z,7.25
2023-04-28T03:15:09.238Z,10.45
2023-04-28T03:17:42.187Z,9.38
2023-04-28T03:20:11.763Z,6.85
2023-04-28T03:22:40.053Z,8.13
2023-04-28T03:25:08.842Z,9.70
2023-04-28T03:27:46.121Z,7.35
2023-04-28T03:30:14.321Z,7.47
2023-04-28T03:32:42.146Z,9.68
2023-04-28T03:35:10.403Z,10.35
2023-04-28T03:42:56.236Z,9.82
2023-04-28T03:45:30.046Z,8.27
2023-04-28T03:47:58.224Z,8.25
2023-04-28T03:50:26.851Z,9.63
2023-04-28T03:52:56.059Z,8.80
2023-04-28T03:55:28.409Z,8.57
2023-04-28T03:57:56.657Z,8.63
2023-04-28T04:00:24.706Z,7.18
2023-04-28T04:02:54.655Z,10.27
2023-04-28T04:05:22.913Z,8.38
2023-04-28T04:07:50.923Z,8.48
2023-04-28T04:10:19.205Z,5.38
2023-04-28T04:12:47.701Z,13.00
2023-04-28T04:15:15.644Z,11.52
2023-04-28T04:17:45.114Z,13.05
2023-04-28T04:20:13.225Z,15.70
2023-04-28T04:22:41.414Z,8.88
2023-04-28T04:25:09.780Z,11.43
2023-04-28T04:27:37.749Z,15.57
2023-04-28T04:30:06.786Z,10.38
2023-04-28T04:32:34.748Z,13.65
2023-04-28T04:35:02.696Z,7.10
2023-04-28T04:37:31.114Z,7.50
2023-04-28T04:40:03.337Z,9.68
2023-04-28T04:42:36.950Z,9.60
2023-04-28T04:45:09.989Z,5.43
2023-04-28T04:47:38.396Z,11.85
2023-04-28T04:50:07.200Z,9.73
2023-04-28T04:52:35.304Z,12.82
2023-04-28T04:55:04.013Z,11.13
2023-04-28T04:57:33.005Z,10.77
2023-04-28T05:00:07.528Z,8.40
2023-04-28T05:02:36.134Z,16.98
2023-04-28T05:05:19.693Z,10.63
2023-04-28T05:08:01.056Z,11.75
2023-04-28T05:10:29.744Z,9.48
2023-04-28T05:12:57.845Z,10.93
2023-04-28T05:15:25.810Z,12.73
2023-04-28T05:18:14.026Z,11.05
2023-04-28T05:20:42.086Z,10.02
2023-04-28T05:23:10.855Z,7.70
2023-04-28T05:25:39.103Z,5.57
2023-04-28T05:28:10.144Z,6.20
2023-04-28T05:30:38.192Z,4.90
2023-04-28T05:33:06.365Z,4.97
2023-04-28T05:35:34.548Z,6.60
2023-04-28T05:38:02.544Z,6.28
2023-04-28T05:40:30.567Z,5.15
2023-04-28T05:42:58.458Z,6.03
2023-04-28T05:45:26.453Z,4.65
2023-04-28T05:47:55.125Z,5.82
2023-04-28T05:50:23.669Z,4.53
2023-04-28T05:52:52.147Z,4.90
2023-04-28T05:55:20.122Z,4.07
2023-04-28T05:57:52.942Z,3.95
2023-04-28T06:00:22.766Z,4.18
2023-04-28T06:02:54.186Z,4.97
2023-04-28T06:05:23.450Z,7.43
2023-04-28T06:07:56.587Z,6.32
2023-04-28T06:10:26.593Z,10.07
2023-04-28T06:12:54.740Z,5.63
2023-04-28T06:15:22.872Z,3.90
2023-04-28T06:17:51.535Z,5.32
2023-04-28T06:22:47.358Z,4.97
2023-04-28T06:25:15.273Z,4.38
2023-04-28T06:27:46.609Z,4.80
2023-04-28T06:30:20.509Z,5.88
2023-04-28T06:32:48.562Z,5.07
2023-04-28T06:35:17.265Z,2.88
2023-04-28T06:37:45.292Z,5.25
2023-04-28T06:40:13.442Z,3.75
2023-04-28T06:42:46.812Z,3.95
2023-04-28T06:45:21.414Z,3.28
2023-04-28T06:47:49.742Z,3.85
2023-04-28T06:50:17.661Z,3.50
2023-04-28T06:52:45.730Z,3.45
2023-04-28T06:55:17.129Z,3.92
2023-04-28T06:57:45.527Z,4.72
2023-04-28T07:02:42.412Z,4.45
2023-04-28T07:05:10.836Z,3.30
2023-04-28T07:07:39.251Z,3.85
2023-04-28T07:12:35.505Z,4.45
2023-04-28T07:15:03.741Z,6.90
2023-04-28T07:17:33.468Z,4.40
2023-04-28T07:22:29.180Z,4.38
2023-04-28T07:24:57.660Z,3.58
2023-04-28T07:27:25.856Z,3.85
2023-04-28T07:29:53.865Z,3.60
2023-04-28T07:32:22.865Z,3.10
2023-04-28T07:34:51.266Z,4.00
2023-04-28T07:37:19.375Z,3.35
2023-04-28T07:39:47.683Z,4.35
2023-04-28T07:42:15.648Z,3.17
2023-04-28T07:44:43.584Z,4.50
2023-04-28T07:47:11.682Z,3.80
2023-04-28T07:49:39.829Z,4.20
2023-04-28T07:52:07.753Z,3.35
2023-04-28T07:54:37.201Z,8.13
2023-04-28T07:57:06.529Z,3.90
2023-04-28T07:59:34.721Z,4.43
2023-04-28T08:02:02.824Z,3.58
2023-04-28T08:04:32.518Z,5.93
2023-04-28T08:07:01.150Z,4.22
2023-04-28T08:11:57.066Z,3.60
2023-04-28T08:14:25.553Z,3.35
2023-04-28T08:16:53.819Z,4.28
2023-04-28T08:19:23.496Z,3.50
2023-04-28T08:21:51.778Z,4.78
2023-04-28T08:24:19.682Z,4.25
2023-04-28T08:26:47.748Z,4.45
2023-04-28T08:29:15.602Z,4.65
2023-04-28T08:34:26.625Z,3.38
2023-04-28T08:36:54.807Z,3.70
2023-04-28T08:41:51.732Z,5.35
2023-04-28T08:44:20.069Z,5.28
2023-04-28T08:46:50.424Z,4.07
2023-04-28T08:49:19.074Z,5.07
2023-04-28T08:51:57.640Z,4.05
2023-04-28T08:54:31.258Z,3.45
2023-04-28T08:56:59.628Z,6.10
2023-04-28T08:59:27.987Z,3.38
2023-04-28T09:01:57.229Z,4.50
2023-04-28T09:04:25.605Z,3.28
2023-04-28T09:06:54.014Z,3.22
2023-04-28T09:09:48.310Z,3.58
2023-04-28T09:12:16.671Z,3.65
2023-04-28T09:14:44.786Z,2.97
2023-04-28T09:17:14.720Z,3.55
2023-04-28T09:19:45.891Z,3.05
2023-04-28T09:22:26.134Z,4.60
2023-04-28T09:24:56.375Z,4.53
2023-04-28T09:27:28.981Z,3.92
2023-04-28T09:29:57.435Z,5.43
2023-04-28T09:32:28.381Z,6.70
2023-04-28T09:34:57.350Z,3.88
2023-04-28T09:37:32.356Z,4.45
2023-04-28T09:40:09.664Z,4.40
2023-04-28T09:42:44.584Z,8.43
2023-04-28T09:45:14.605Z,4.63
2023-04-28T09:47:46.707Z,5.00
2023-04-28T09:50:17.742Z,5.03
2023-04-28T09:53:00.038Z,6.57
2023-04-28T09:55:29.466Z,2.40
2023-04-28T09:58:02.281Z,4.32
2023-04-28T10:00:31.393Z,4.05
2023-04-28T10:03:00.513Z,4.35
2023-04-28T10:05:29.209Z,4.75
2023-04-28T10:07:57.497Z,5.25
2023-04-28T10:10:27.559Z,5.05
2023-04-28T10:12:55.785Z,5.28
2023-04-28T10:15:23.928Z,6.40
2023-04-28T10:17:53.386Z,7.15
2023-04-28T10:20:23.276Z,5.75
2023-04-28T10:22:51.143Z,5.07
2023-04-28T10:25:32.815Z,5.47
2023-04-28T10:28:05.078Z,4.88
2023-04-28T10:30:34.193Z,6.63
2023-04-28T10:33:14.324Z,5.60
2023-04-28T10:35:45.365Z,6.65
2023-04-28T10:38:18.054Z,6.63
2023-04-28T10:40:47.705Z,6.15
2023-04-28T10:43:39.802Z,11.30
2023-04-28T10:46:09.486Z,4.95
2023-04-28T10:48:49.191Z,5.20
2023-04-28T10:51:17.239Z,6.10
2023-04-28T10:53:45.285Z,5.22
2023-04-28T10:56:25.460Z,4.70
2023-04-28T10:58:55.107Z,4.78
2023-04-28T11:01:24.970Z,5.05
2023-04-28T11:04:15.977Z,6.43
2023-04-28T11:06:46.243Z,4.97
2023-04-28T11:09:20.143Z,4.38
2023-04-28T11:12:00.260Z,5.57
2023-04-28T11:14:32.639Z,7.82
2023-04-28T11:17:13.578Z,5.35
2023-04-28T11:19:46.819Z,6.15
2023-04-28T11:22:17.392Z,3.90
2023-04-28T11:24:58.542Z,5.22
2023-04-28T11:27:31.825Z,5.30
2023-04-28T11:30:01.921Z,6.70
2023-04-28T11:32:40.488Z,9.38
2023-04-28T11:35:10.143Z,5.05
2023-04-28T11:37:39.260Z,4.82
2023-04-28T11:40:14.179Z,5.38
2023-04-28T11:42:51.274Z,4.85
2023-04-28T11:45:19.297Z,4.43
2023-04-28T11:47:47.715Z,4.05
2023-04-28T11:50:16.590Z,4.25
2023-04-28T11:52:53.462Z,8.15
2023-04-28T11:55:21.997Z,5.20
2023-04-28T11:57:49.959Z,4.88
2023-04-28T12:00:22.207Z,6.30
2023-04-28T12:02:51.275Z,5.80
2023-04-28T12:05:22.518Z,6.60
2023-04-28T12:07:50.794Z,5.22
2023-04-28T12:10:20.078Z,6.15
2023-04-28T12:12:52.792Z,8.75
2023-04-28T12:15:22.884Z,5.88
2023-04-28T12:17:51.707Z,4.25
2023-04-28T12:20:38.063Z,4.43
2023-04-28T12:23:06.749Z,4.65
2023-04-28T12:25:44.589Z,5.13
2023-04-28T12:28:12.698Z,8.98
2023-04-28T12:30:43.845Z,4.95
2023-04-28T12:33:29.840Z,4.20
2023-04-28T12:35:58.588Z,4.95
2023-04-28T12:38:27.737Z,5.45
2023-04-28T12:40:56.071Z,6.03
2023-04-28T12:43:24.447Z,4.90
2023-04-28T12:45:56.839Z,8.27
2023-04-28T12:48:25.515Z,2.95
2023-04-28T12:53:22.062Z,5.10
2023-04-28T12:58:20.336Z,4.38
2023-04-28T13:00:48.380Z,4.40
2023-04-28T13:03:16.578Z,7.63
2023-04-28T13:05:45.187Z,4.68
2023-04-28T13:08:14.228Z,3.53
2023-04-28T13:10:42.280Z,4.15
2023-04-28T13:13:10.200Z,5.80
2023-04-28T13:15:39.025Z,4.53
2023-04-28T13:18:07.190Z,3.25
2023-04-28T13:20:35.562Z,4.60
2023-04-28T13:23:03.787Z,4.60
2023-04-28T13:25:31.994Z,7.10
2023-04-28T13:27:59.926Z,3.25
2023-04-28T13:30:28.031Z,4.28
2023-04-28T13:32:57.615Z,4.25
2023-04-28T13:35:26.509Z,4.82
2023-04-28T13:40:30.485Z,3.45
2023-04-28T13:42:58.539Z,4.22
2023-04-28T13:45:27.244Z,4.40
2023-04-28T13:47:55.885Z,5.40
2023-04-28T13:52:52.189Z,3.67
2023-04-28T13:55:27.668Z,9.63
2023-04-28T13:57:56.769Z,3.75
2023-04-28T14:00:25.189Z,4.63
2023-04-28T14:02:53.826Z,6.30
2023-04-28T14:05:22.668Z,5.53
2023-04-28T14:07:51.081Z,7.70
2023-04-28T14:10:19.176Z,5.85
2023-04-28T14:12:47.455Z,5.15
2023-04-28T14:15:16.529Z,4.18
2023-04-28T14:17:44.623Z,5.57
2023-04-28T14:20:13.633Z,5.07
2023-04-28T14:22:41.905Z,2.40
2023-04-28T14:25:10.383Z,6.00
2023-04-28T14:27:38.417Z,4.50
2023-04-28T14:30:07.271Z,5.00
2023-04-28T14:32:36.967Z,4.32
2023-04-28T14:35:07.468Z,3.97
2023-04-28T14:37:36.142Z,4.72
2023-04-28T14:40:06.003Z,5.80
2023-04-28T14:42:37.531Z,5.53
2023-04-28T14:45:09.500Z,3.20
2023-04-28T14:47:39.248Z,4.55
2023-04-28T14:50:08.876Z,5.80
2023-04-28T14:52:38.399Z,6.55
2023-04-28T14:55:07.394Z,5.00
2023-04-28T14:57:38.029Z,3.80
2023-04-28T15:00:08.367Z,1.90
2023-04-28T15:02:36.825Z,5.75
2023-04-28T15:05:06.371Z,5.30
2023-04-28T15:07:35.222Z,4.80
2023-04-28T15:10:03.281Z,5.88
2023-04-28T15:12:32.287Z,4.45
2023-04-28T15:15:00.839Z,4.60
2023-04-28T15:17:28.930Z,3.42
2023-04-28T15:19:57.497Z,5.38
2023-04-28T15:22:25.744Z,3.80
2023-04-28T15:24:53.712Z,4.88
2023-04-28T15:27:21.906Z,4.60
2023-04-28T15:29:50.796Z,6.68
2023-04-28T15:32:19.273Z,4.25
2023-04-28T15:34:48.524Z,6.53
2023-04-28T15:37:37.852Z,5.45
2023-04-28T15:40:07.372Z,7.47
2023-04-28T15:42:35.874Z,7.45
2023-04-28T15:45:05.082Z,4.90
2023-04-28T15:47:33.451Z,7.57
2023-04-28T15:50:01.880Z,7.35
2023-04-28T15:55:01.002Z,4.43
2023-04-28T15:57:30.066Z,12.93
2023-04-28T15:59:58.639Z,8.85
2023-04-28T16:02:27.666Z,6.50
2023-04-28T16:04:56.165Z,5.03
2023-04-28T16:09:54.047Z,5.82
2023-04-28T16:12:22.587Z,4.82
2023-04-28T16:14:51.379Z,5.35
2023-04-28T16:17:19.592Z,3.58
2023-04-28T16:19:47.561Z,4.55
2023-04-28T16:22:15.979Z,3.63
2023-04-28T16:24:45.389Z,5.00
2023-04-28T16:27:14.412Z,6.60
2023-04-28T16:29:42.640Z,36.17
2023-04-28T16:32:11.031Z,12.48
2023-04-28T16:37:08.454Z,34.47
2023-04-28T16:39:37.052Z,20.13
2023-04-28T16:42:05.762Z,11.80
2023-04-28T16:44:35.415Z,9.98
2023-04-28T16:47:04.466Z,6.70
2023-04-28T16:49:33.024Z,4.68
2023-04-28T16:52:04.758Z,5.45
2023-04-28T16:54:33.791Z,6.28
2023-04-28T16:57:05.487Z,9.45
2023-04-28T16:59:34.451Z,7.53
2023-04-28T17:02:07.177Z,11.00
2023-04-28T17:04:37.191Z,6.53
2023-04-28T17:07:06.498Z,7.78
2023-04-28T17:12:04.405Z,6.25
2023-04-28T17:14:33.009Z,7.35
2023-04-28T17:17:01.419Z,6.22
2023-04-28T17:19:30.355Z,18.00
2023-04-28T17:21:58.874Z,15.85
2023-04-28T17:24:27.492Z,22.25
2023-04-28T17:26:55.925Z,34.40
2023-04-28T17:29:25.007Z,17.20
2023-04-28T17:31:53.778Z,20.25
2023-04-28T17:34:22.318Z,17.08
2023-04-28T17:36:50.984Z,18.40
2023-04-28T17:41:48.300Z,22.67
2023-04-28T17:44:17.143Z,24.10
2023-04-28T17:46:45.832Z,16.38
2023-04-28T17:49:14.229Z,15.07
2023-04-28T17:51:42.761Z,18.25
2023-04-28T17:54:11.127Z,14.20
2023-04-28T17:56:40.115Z,8.68
2023-04-28T17:59:09.369Z,13.05
2023-04-28T18:01:38.030Z,12.50
2023-04-28T18:04:06.433Z,9.60
2023-04-28T18:06:34.796Z,9.25
2023-04-28T18:09:03.551Z,7.63
2023-04-28T18:11:32.103Z,5.57
2023-04-28T18:14:00.574Z,5.22
2023-04-28T18:16:29.429Z,10.50
2023-04-28T18:18:57.955Z,7.68
2023-04-28T18:21:26.534Z,11.43
2023-04-28T18:23:54.925Z,10.15
2023-04-28T18:26:23.382Z,8.38
2023-04-28T18:28:51.858Z,12.05
2023-04-28T18:31:20.648Z,18.10
2023-04-28T18:33:49.170Z,14.05
2023-04-28T18:36:17.343Z,28.80
2023-04-28T18:38:45.282Z,48.50
2023-04-28T18:41:15.387Z,25.88
2023-04-28T18:43:44.412Z,12.68
2023-04-28T18:46:12.813Z,14.20
2023-04-28T18:48:41.497Z,19.20
2023-04-28T18:51:10.050Z,23.58
2023-04-28T18:53:38.537Z,33.00
2023-04-28T18:56:07.108Z,19.35
2023-04-28T18:58:37.490Z,19.92
2023-04-28T19:01:06.030Z,18.92
2023-04-28T19:03:34.717Z,9.55
2023-04-28T19:08:32.195Z,8.40
2023-04-28T19:11:01.017Z,5.88
2023-04-28T19:13:29.361Z,7.88
2023-04-28T19:15:58.199Z,7.57
2023-04-28T19:18:27.841Z,6.40
2023-04-28T19:21:03.942Z,9.85
2023-04-28T19:23:35.734Z,6.57
2023-04-28T19:26:04.645Z,6.07
2023-04-28T19:28:32.997Z,5.40
2023-04-28T19:31:01.583Z,11.88
2023-04-28T19:33:30.084Z,6.88
2023-04-28T19:36:00.257Z,7.15
2023-04-28T19:38:29.030Z,5.75
2023-04-28T19:41:04.444Z,7.82
2023-04-28T19:43:33.163Z,5.90
2023-04-28T19:46:01.691Z,7.90
2023-04-28T19:48:30.229Z,8.23
2023-04-28T19:50:59.033Z,10.00
2023-04-28T19:55:57.583Z,9.00
2023-04-28T19:58:26.057Z,8.48
2023-04-28T20:00:55.715Z,9.88
2023-04-28T20:03:24.627Z,12.23
2023-04-28T20:05:53.378Z,13.85
2023-04-28T20:08:24.616Z,24.27
2023-04-28T20:10:54.833Z,15.02
2023-04-28T20:13:23.437Z,16.92
2023-04-28T20:15:54.577Z,16.13
2023-04-28T20:18:23.099Z,10.82
2023-04-28T20:20:53.467Z,13.32
2023-04-28T20:23:22.143Z,7.07
2023-04-28T20:25:50.630Z,6.38
2023-04-28T20:28:18.957Z,7.82
2023-04-28T20:30:47.546Z,6.60
2023-04-28T20:33:17.349Z,7.68
2023-04-28T20:35:45.905Z,8.75
2023-04-28T20:38:14.838Z,6.53
2023-04-28T20:40:44.982Z,6.63
2023-04-28T20:43:13.470Z,8.57
2023-04-28T20:45:42.463Z,5.32
2023-04-28T20:48:11.196Z,6.50
2023-04-28T20:50:40.180Z,6.22
2023-04-28T20:55:37.169Z,7.20
2023-04-28T20:58:07.178Z,7.85
2023-04-28T21:00:40.484Z,6.45
2023-04-28T21:03:15.734Z,6.45
2023-04-28T21:05:46.821Z,6.38
2023-04-28T21:08:15.316Z,6.30
2023-04-28T21:10:43.749Z,5.93
2023-04-28T21:13:13.365Z,7.45
2023-04-28T21:15:41.783Z,5.85
2023-04-28T21:18:09.841Z,6.07
2023-04-28T21:20:38.220Z,4.85
2023-04-28T21:23:07.824Z,6.03
2023-04-28T21:25:36.947Z,6.25
2023-04-28T21:30:32.921Z,5.65
2023-04-28T21:33:01.148Z,5.47
2023-04-28T21:35:29.417Z,11.15
2023-04-28T21:37:57.442Z,8.80
2023-04-28T21:40:25.916Z,6.78
2023-04-28T21:42:53.831Z,5.88
2023-04-28T21:45:21.843Z,6.72
2023-04-28T21:47:49.708Z,6.65
2023-04-28T21:50:17.827Z,8.48
2023-04-28T21:52:47.964Z,7.18
2023-04-28T21:55:16.049Z,10.15
2023-04-28T21:57:44.118Z,9.23
2023-04-28T22:00:13.039Z,8.23
2023-04-28T22:02:43.968Z,6.10
2023-04-28T22:05:12.183Z,6.05
2023-04-28T22:07:40.266Z,10.05
2023-04-28T22:10:09.440Z,7.20
2023-04-28T22:15:06.275Z,7.90
2023-04-28T22:17:34.555Z,7.50
2023-04-28T22:20:02.649Z,6.10
2023-04-28T22:22:31.319Z,9.88
2023-04-28T22:24:59.667Z,8.77
2023-04-28T22:27:27.707Z,7.75
2023-04-28T22:29:55.748Z,8.75
2023-04-28T22:32:23.666Z,6.07
2023-04-28T22:34:51.823Z,8.43
2023-04-28T22:37:19.739Z,7.60
2023-04-28T22:39:47.729Z,7.40
2023-04-28T22:42:15.693Z,7.20
2023-04-28T22:44:44.096Z,5.75
2023-04-28T22:47:12.070Z,7.38
2023-04-28T22:49:40.174Z,8.32
2023-04-28T22:52:08.217Z,6.63
2023-04-28T22:54:39.091Z,10.35
2023-04-28T22:57:07.121Z,7.00
2023-04-28T22:59:35.036Z,9.50
2023-04-28T23:02:03.261Z,7.20
2023-04-28T23:04:31.416Z,8.57
2023-04-28T23:06:59.401Z,7.15
2023-04-28T23:09:27.610Z,9.65
2023-04-28T23:11:55.477Z,10.55
2023-04-28T23:14:23.377Z,10.95
2023-04-28T23:16:51.277Z,11.00
2023-04-28T23:19:20.712Z,11.90
2023-04-28T23:21:51.761Z,10.98
2023-04-28T23:24:19.711Z,11.13
2023-04-28T23:26:47.678Z,9.63
2023-04-28T23:29:15.699Z,10.07
2023-04-28T23:31:43.566Z,9.25
2023-04-28T23:34:12.025Z,6.72
2023-04-28T23:36:40.042Z,10.70
2023-04-28T23:39:07.961Z,8.07
2023-04-28T23:41:36.018Z,10.20
2023-04-28T23:44:03.824Z,13.63
2023-04-28T23:46:31.780Z,6.88
2023-04-28T23:48:59.623Z,9.10
2023-04-28T23:51:27.649Z,8.18
2023-04-28T23:53:55.624Z,9.70
2023-04-28T23:56:23.772Z,9.43
2023-04-28T23:58:51.607Z,7.68
